Cookeville, TN (38501)

5:55 PM CDT on June 03, 2015 (GMT -0500)
Forrest Cove Ln and Forrest Rd | | Change Station
CLOSE
Current Station
Personal Weather Station
Location: Cookeville, TN
Elevation: 1079 ft
Nearby Weather Stations

Elev 1079 ft 36.20 °N, 85.52 °W | Updated 35 seconds ago

Partly Cloudy
Partly Cloudy
79.7 °F
Feels Like 82 °F
N
2.0
Wind Variable Wind from ENE
Gusts 6.0 mph

Today
High -- | Low -- °F
--% Chance of Precip.
Yesterday
High -- | Low -- °F
Precip. -- in
5:25 AM 7:55 PM
Full, 98% visible
Pressure 30.01 in
Visibility 9.0 miles
Clouds Scattered Clouds 7000 ft
Overcast 10000 ft
Heat Index 82 °F
Dew Point 67 °F
Humidity 61%
Rainfall 0.00 in
Snow Depth Not available.
UV 1 out of 12
Pollen 6.40 out of 12
Air Quality Not available.
Flu Activity Sporadic
SPECI KCSV 032248Z AUTO 32006KT 9SM VCTS -RA SCT070 OVC100 17/15 A3001 RMK AO2 LTG DSNT NE TSE16 P0050

More Conditions Fewer Conditions

Pressure 30.01 in
Visibility 9.0 miles
Clouds Scattered Clouds 7000 ft
Overcast 10000 ft
Heat Index 82 °F
Dew Point 67 °F
Humidity 61%
Rainfall 0.00 in
Snow Depth Not available.
UV 1 out of 12
Pollen 6.40 out of 12
Air Quality Not available.
Flu Activity Sporadic
SPECI KCSV 032248Z AUTO 32006KT 9SM VCTS -RA SCT070 OVC100 17/15 A3001 RMK AO2 LTG DSNT NE TSE16 P0050

More Conditions Fewer Conditions

10-Day Weather Forecast

×

Almanac

Astronomy

Jun. 03, 2015 Rise Set
Actual Time
Civil Twilight
Nautical Twilight
Astronomical Twilight
Moon
Length of Visible Light
Length of Day
Tomorrow will be .
, % of the Moon is Illuminated

Today's Extremes

State Highs State Lows

Community

WunderPhotos

Upload Photos

1,826,295 photos uploaded!

WunderBlogs® & News

Nearby

Air Quality

  Air Quality AQ Index Pollutant
Not available.

Snow Depth

Station Depth Elevation

Earthquake Activity

City Distance Mag. Time & Date
Minimum magnitude displayed is 2.5.

Coastal Water Temperatures

Place Temperature

Stations

Nearby Weather Stations

Station Location Temp. Windchill Dew Point Humidity Wind Precip. Elev Updated Type